createdAt,value
2022-12-11T00:00:12.270Z,97824.88
2022-12-11T00:03:00.444Z,97833.13
2022-12-11T00:05:28.154Z,97843.06
2022-12-11T00:07:56.250Z,97878.16
2022-12-11T00:10:24.151Z,97873.59
2022-12-11T00:12:52.212Z,97877.16
2022-12-11T00:15:19.920Z,97869.59
2022-12-11T00:17:47.845Z,97874.19
2022-12-11T00:20:16.409Z,97887.88
2022-12-11T00:22:44.660Z,97877.13
2022-12-11T00:25:13.034Z,97890.91
2022-12-11T00:27:41.211Z,97877.28
2022-12-11T00:30:09.638Z,97901.41
2022-12-11T00:32:37.829Z,97907.38
2022-12-11T00:35:06.091Z,97893.72
2022-12-11T00:37:34.178Z,97902.06
2022-12-11T00:40:01.798Z,97908.81
2022-12-11T00:42:33.081Z,97916.44
2022-12-11T00:45:09.335Z,97908.28
2022-12-11T00:47:45.073Z,97936.78
2022-12-11T00:50:25.294Z,97949.63
2022-12-11T00:52:58.781Z,97918.69
2022-12-11T00:55:28.684Z,97924.41
2022-12-11T00:57:58.466Z,97932.03
2022-12-11T01:00:26.190Z,97922.25
2022-12-11T01:02:54.104Z,97951.69
2022-12-11T01:05:22.399Z,97917.41
2022-12-11T01:07:50.408Z,97964.50
2022-12-11T01:10:24.209Z,97940.09
2022-12-11T01:12:59.348Z,97917.03
2022-12-11T01:15:48.567Z,97931.22
2022-12-11T01:18:16.426Z,97920.59
2022-12-11T01:20:44.074Z,97941.78
2022-12-11T01:23:13.961Z,97951.97
2022-12-11T01:25:43.106Z,97941.94
2022-12-11T01:28:11.170Z,97957.41
2022-12-11T01:30:42.679Z,97940.25
2022-12-11T01:33:11.085Z,97960.19
2022-12-11T01:35:40.520Z,97966.38
2022-12-11T01:38:09.735Z,98011.34
2022-12-11T01:40:37.430Z,97980.03
2022-12-11T01:43:05.451Z,97972.34
2022-12-11T01:45:51.110Z,97980.84
2022-12-11T01:48:28.576Z,97999.88
2022-12-11T01:51:05.102Z,97987.00
2022-12-11T01:53:42.231Z,97996.34
2022-12-11T01:56:10.811Z,98028.75
2022-12-11T01:58:56.519Z,97998.31
2022-12-11T02:01:51.191Z,98040.16
2022-12-11T02:04:20.899Z,98040.22
2022-12-11T02:06:52.080Z,98016.59
2022-12-11T02:09:33.978Z,98042.31
2022-12-11T02:12:19.715Z,98042.06
2022-12-11T02:15:25.510Z,98052.56
2022-12-11T02:18:34.169Z,98062.38
2022-12-11T02:21:13.452Z,98074.03
2022-12-11T02:24:04.871Z,98097.28
2022-12-11T02:27:03.042Z,98089.56
2022-12-11T02:29:33.884Z,98083.47
2022-12-11T02:32:16.925Z,98083.75
2022-12-11T02:34:55.834Z,98097.56
2022-12-11T02:37:28.274Z,98105.03
2022-12-11T02:39:57.258Z,98097.22
2022-12-11T02:42:30.882Z,98111.41
2022-12-11T02:45:01.815Z,98122.22
2022-12-11T02:47:32.182Z,98152.75
2022-12-11T02:50:03.873Z,98144.56
2022-12-11T02:52:34.567Z,98175.75
2022-12-11T02:55:06.323Z,98192.88
2022-12-11T02:57:37.773Z,98153.66
2022-12-11T03:00:08.481Z,98175.34
2022-12-11T03:02:38.899Z,98167.53
2022-12-11T03:05:07.468Z,98196.81
2022-12-11T03:07:40.521Z,98194.84
2022-12-11T03:10:11.928Z,98192.94
2022-12-11T03:12:46.983Z,98200.53
2022-12-11T03:15:21.910Z,98213.09
2022-12-11T03:18:13.223Z,98208.69
2022-12-11T03:20:58.318Z,98210.16
2022-12-11T03:23:35.079Z,98194.38
2022-12-11T03:26:15.810Z,98238.03
2022-12-11T03:29:00.970Z,98222.56
2022-12-11T03:32:07.376Z,98222.75
2022-12-11T03:35:13.721Z,98258.38
2022-12-11T03:37:44.788Z,98234.22
2022-12-11T03:40:18.090Z,98250.91
2022-12-11T03:42:51.050Z,98250.16
2022-12-11T03:45:22.364Z,98257.84
2022-12-11T03:47:52.221Z,98257.34
2022-12-11T03:50:23.575Z,98233.72
2022-12-11T03:52:52.370Z,98226.72
2022-12-11T03:55:22.987Z,98245.78
2022-12-11T03:57:50.712Z,98240.66
2022-12-11T04:00:21.898Z,98266.06
2022-12-11T04:03:13.648Z,98281.72
2022-12-11T04:05:50.349Z,98266.75
2022-12-11T04:08:23.333Z,98274.81
2022-12-11T04:11:10.637Z,98285.59
2022-12-11T04:13:39.704Z,98298.75
2022-12-11T04:16:08.639Z,98307.66
2022-12-11T04:18:54.956Z,98323.56
2022-12-11T04:21:41.282Z,98324.44
2022-12-11T04:24:15.605Z,98329.97
2022-12-11T04:26:47.933Z,98325.53
2022-12-11T04:29:16.170Z,98328.25
2022-12-11T04:31:45.851Z,98329.22
2022-12-11T04:34:13.366Z,98339.09
2022-12-11T04:36:41.191Z,98354.69
2022-12-11T04:39:08.764Z,98380.72
2022-12-11T04:41:37.288Z,98352.84
2022-12-11T04:44:05.751Z,98358.91
2022-12-11T04:46:34.431Z,98373.59
2022-12-11T04:49:02.456Z,98387.84
2022-12-11T04:51:30.316Z,98377.00
2022-12-11T04:53:59.613Z,98384.03
2022-12-11T04:56:27.542Z,98397.09
2022-12-11T04:58:55.177Z,98418.56
2022-12-11T05:01:23.867Z,98396.28
2022-12-11T05:03:51.526Z,98408.00
2022-12-11T05:06:19.549Z,98416.28
2022-12-11T05:08:47.058Z,98421.16
2022-12-11T05:11:16.125Z,98429.91
2022-12-11T05:13:44.694Z,98444.88
2022-12-11T05:16:15.773Z,98444.78
2022-12-11T05:18:44.111Z,98449.97
2022-12-11T05:21:15.240Z,98457.47
2022-12-11T05:23:43.234Z,98449.28
2022-12-11T05:26:20.073Z,98446.53
2022-12-11T05:28:53.381Z,98452.41
2022-12-11T05:31:25.636Z,98461.13
2022-12-11T05:33:54.419Z,98448.88
2022-12-11T05:36:27.921Z,98452.41
2022-12-11T05:38:57.722Z,98469.97
2022-12-11T05:41:37.443Z,98490.53
2022-12-11T05:44:08.308Z,98467.09
2022-12-11T05:46:37.303Z,98467.88
2022-12-11T05:49:05.213Z,98472.31
2022-12-11T05:51:36.298Z,98500.81
2022-12-11T05:54:04.450Z,98478.38
2022-12-11T05:56:35.102Z,98483.88
2022-12-11T05:59:05.625Z,98491.81
2022-12-11T06:01:43.022Z,98495.13
2022-12-11T06:04:12.535Z,98506.59
2022-12-11T06:06:41.319Z,98516.31
2022-12-11T06:09:12.792Z,98499.75
2022-12-11T06:11:59.452Z,98521.63
2022-12-11T06:14:27.280Z,98518.00
2022-12-11T06:16:55.383Z,98553.59
2022-12-11T06:19:22.888Z,98526.72
2022-12-11T06:21:50.993Z,98538.56
2022-12-11T06:24:18.959Z,98523.53
2022-12-11T06:27:12.688Z,98529.38
2022-12-11T06:29:42.071Z,98533.16
2022-12-11T06:32:10.666Z,98540.53
2022-12-11T06:34:38.307Z,98547.16
2022-12-11T06:37:07.347Z,98532.59
2022-12-11T06:39:35.014Z,98541.84
2022-12-11T06:42:02.967Z,98551.47
2022-12-11T06:44:30.669Z,98558.31
2022-12-11T06:46:58.569Z,98580.41
2022-12-11T06:49:26.152Z,98574.53
2022-12-11T06:51:54.350Z,98553.56
2022-12-11T06:54:27.435Z,98569.75
2022-12-11T06:56:56.139Z,98574.63
2022-12-11T06:59:24.414Z,98586.31
2022-12-11T07:01:52.411Z,98579.63
2022-12-11T07:04:24.993Z,98591.00
2022-12-11T07:06:53.601Z,98584.38
2022-12-11T07:09:23.657Z,98593.56
2022-12-11T07:11:53.303Z,98584.50
2022-12-11T07:14:21.123Z,98603.81
2022-12-11T07:16:49.015Z,98587.47
2022-12-11T07:19:16.887Z,98603.38
2022-12-11T07:21:44.791Z,98626.38
2022-12-11T07:24:12.458Z,98644.22
2022-12-11T07:26:40.368Z,98634.53
2022-12-11T07:29:08.339Z,98644.69
2022-12-11T07:31:37.023Z,98661.34
2022-12-11T07:34:08.209Z,98656.16
2022-12-11T07:36:36.146Z,98690.63
2022-12-11T07:39:04.123Z,98664.41
2022-12-11T07:41:32.283Z,98670.94
2022-12-11T07:44:01.647Z,98676.94
2022-12-11T07:46:33.400Z,98687.97
2022-12-11T07:49:02.092Z,98704.09
2022-12-11T07:51:36.998Z,98688.31
2022-12-11T07:54:15.005Z,98703.03
2022-12-11T07:56:47.434Z,98709.22
2022-12-11T07:59:17.661Z,98707.13
2022-12-11T08:01:45.574Z,98711.53
2022-12-11T08:04:15.762Z,98718.28
2022-12-11T08:06:44.062Z,98705.03
2022-12-11T08:09:21.015Z,98740.81
2022-12-11T08:11:51.008Z,98732.41
2022-12-11T08:14:19.629Z,98722.78
2022-12-11T08:16:48.793Z,98733.97
2022-12-11T08:19:18.067Z,98740.03
2022-12-11T08:21:46.140Z,98735.31
2022-12-11T08:24:16.541Z,98745.59
2022-12-11T08:26:45.916Z,98748.50
2022-12-11T08:29:14.094Z,98771.38
2022-12-11T08:31:42.807Z,98769.03
2022-12-11T08:34:13.903Z,98762.59
2022-12-11T08:36:42.268Z,98770.97
2022-12-11T08:39:09.899Z,98778.41
2022-12-11T08:41:38.663Z,98769.03
2022-12-11T08:44:16.033Z,98770.69
2022-12-11T08:46:46.300Z,98785.72
2022-12-11T08:49:14.470Z,98756.88
2022-12-11T08:51:42.278Z,98757.72
2022-12-11T08:54:10.963Z,98770.16
2022-12-11T08:56:38.794Z,98774.63
2022-12-11T08:59:06.895Z,98795.03
2022-12-11T09:01:34.891Z,98780.53
2022-12-11T09:04:02.632Z,98793.16
2022-12-11T09:06:33.005Z,98785.00
2022-12-11T09:09:02.682Z,98790.72
2022-12-11T09:11:34.407Z,98787.88
2022-12-11T09:14:07.563Z,98790.56
2022-12-11T09:16:40.491Z,98781.28
2022-12-11T09:19:14.159Z,98785.63
2022-12-11T09:21:43.759Z,98778.25
2022-12-11T09:24:13.522Z,98779.59
2022-12-11T09:26:42.389Z,98780.91
2022-12-11T09:29:12.071Z,98780.03
2022-12-11T09:31:40.152Z,98768.28
2022-12-11T09:34:11.862Z,98759.00
2022-12-11T09:36:42.192Z,98747.72
2022-12-11T09:39:13.690Z,98736.44
2022-12-11T09:42:14.032Z,98735.38
2022-12-11T09:44:54.557Z,98743.53
2022-12-11T09:47:35.972Z,98739.59
2022-12-11T09:50:10.478Z,98753.59
2022-12-11T09:52:47.920Z,98765.31
2022-12-11T09:55:24.385Z,98748.72
2022-12-11T09:58:07.122Z,98755.25
2022-12-11T10:01:14.598Z,98764.31
2022-12-11T10:04:06.551Z,98764.22
2022-12-11T10:07:04.419Z,98776.47
2022-12-11T10:10:10.585Z,98783.00
2022-12-11T10:13:00.839Z,98764.31
2022-12-11T10:15:59.885Z,98765.31
2022-12-11T10:18:29.725Z,98764.75
2022-12-11T10:21:01.872Z,98778.69
2022-12-11T10:23:46.688Z,98780.56
2022-12-11T10:26:21.782Z,98795.28
2022-12-11T10:28:49.855Z,98780.91
2022-12-11T10:31:20.732Z,98772.94
2022-12-11T10:34:08.482Z,98772.06
2022-12-11T10:36:40.131Z,98767.91
2022-12-11T10:39:21.216Z,98772.63
2022-12-11T10:41:55.822Z,98765.25
2022-12-11T10:44:30.431Z,98765.13
2022-12-11T10:47:18.480Z,98768.56
2022-12-11T10:49:58.440Z,98742.00
2022-12-11T10:52:44.081Z,98726.97
2022-12-11T10:55:28.480Z,98718.13
2022-12-11T10:58:03.893Z,98714.38
2022-12-11T11:00:40.773Z,98717.25
2022-12-11T11:03:26.694Z,98717.13
2022-12-11T11:06:17.361Z,98718.00
2022-12-11T11:08:49.187Z,98726.66
2022-12-11T11:11:36.793Z,98732.38
2022-12-11T11:14:19.373Z,98736.72
2022-12-11T11:16:55.123Z,98734.81
2022-12-11T11:19:31.677Z,98734.91
2022-12-11T11:22:22.230Z,98744.22
2022-12-11T11:24:58.588Z,98761.25
2022-12-11T11:27:59.486Z,98759.06
2022-12-11T11:30:35.738Z,98751.75
2022-12-11T11:33:22.532Z,98755.06
2022-12-11T11:35:56.424Z,98747.88
2022-12-11T11:38:59.888Z,98743.31
2022-12-11T11:41:49.605Z,98752.63
2022-12-11T11:44:27.431Z,98768.31
2022-12-11T11:47:14.738Z,98748.16
2022-12-11T11:49:42.269Z,98754.81
2022-12-11T11:52:15.694Z,98749.94
2022-12-11T11:55:11.808Z,98753.47
2022-12-11T11:57:55.568Z,98735.69
2022-12-11T12:00:27.577Z,98721.66
2022-12-11T12:03:13.261Z,98720.97
2022-12-11T12:05:50.702Z,98730.63
2022-12-11T12:08:30.452Z,98730.19
2022-12-11T12:11:19.012Z,98729.84
2022-12-11T12:13:58.275Z,98743.78
2022-12-11T12:17:05.633Z,98744.66
2022-12-11T12:20:26.049Z,98739.56
2022-12-11T12:23:36.955Z,98749.75
2022-12-11T12:26:35.843Z,98751.97
2022-12-11T12:29:24.413Z,98758.25
2022-12-11T12:32:10.127Z,98743.34
2022-12-11T12:35:11.458Z,98760.81
2022-12-11T12:38:07.015Z,98767.53
2022-12-11T12:41:05.453Z,98745.09
2022-12-11T12:44:04.941Z,98745.53
2022-12-11T12:46:46.574Z,98755.28
2022-12-11T12:49:37.546Z,98776.41
2022-12-11T12:52:13.441Z,98773.88
2022-12-11T12:55:04.115Z,98786.91
2022-12-11T12:57:34.211Z,98784.47
2022-12-11T13:00:03.945Z,98791.78
2022-12-11T13:02:33.677Z,98799.06
2022-12-11T13:05:22.064Z,98802.34
2022-12-11T13:08:02.602Z,98805.91
2022-12-11T13:10:43.383Z,98826.63
2022-12-11T13:13:34.854Z,98808.28
2022-12-11T13:16:15.343Z,98801.25
2022-12-11T13:18:47.632Z,98811.22
2022-12-11T13:21:35.393Z,98849.84
2022-12-11T13:24:19.505Z,98806.75
2022-12-11T13:26:49.564Z,98823.16
2022-12-11T13:29:39.639Z,98837.31
2022-12-11T13:32:10.184Z,98839.56
2022-12-11T13:34:42.940Z,98836.22
2022-12-11T13:37:41.527Z,98828.91
2022-12-11T13:40:24.421Z,98853.69
2022-12-11T13:43:35.508Z,98845.50
2022-12-11T13:46:15.204Z,98833.88
2022-12-11T13:48:54.410Z,98835.44
2022-12-11T13:51:26.039Z,98847.94
2022-12-11T13:54:18.931Z,98847.47
2022-12-11T13:57:09.372Z,98850.16
2022-12-11T13:59:42.988Z,98863.66
2022-12-11T14:02:34.180Z,98854.25
2022-12-11T14:05:10.629Z,98856.56
2022-12-11T14:07:49.868Z,98866.53
2022-12-11T14:10:24.161Z,98862.31
2022-12-11T14:13:22.222Z,98866.66
2022-12-11T14:15:50.598Z,98864.31
2022-12-11T14:18:28.724Z,98855.00
2022-12-11T14:21:06.233Z,98843.19
2022-12-11T14:23:37.545Z,98848.78
2022-12-11T14:26:20.182Z,98842.56
2022-12-11T14:28:48.504Z,98847.03
2022-12-11T14:31:28.533Z,98850.94
2022-12-11T14:34:13.943Z,98857.81
2022-12-11T14:36:43.984Z,98863.34
2022-12-11T14:39:39.622Z,98857.84
2022-12-11T14:42:22.093Z,98856.34
2022-12-11T14:45:19.208Z,98840.88
2022-12-11T14:47:47.404Z,98859.72
2022-12-11T14:50:47.928Z,98862.50
2022-12-11T14:53:25.728Z,98865.16
2022-12-11T14:55:55.830Z,98870.09
2022-12-11T14:58:27.204Z,98879.19
2022-12-11T15:01:06.980Z,98873.69
2022-12-11T15:03:39.549Z,98887.88
2022-12-11T15:06:26.693Z,98882.44
2022-12-11T15:08:55.531Z,98886.63
2022-12-11T15:11:25.310Z,98880.44
2022-12-11T15:13:58.130Z,98895.69
2022-12-11T15:16:31.358Z,98879.22
2022-12-11T15:18:59.778Z,98884.00
2022-12-11T15:21:36.136Z,98895.88
2022-12-11T15:24:07.150Z,98895.97
2022-12-11T15:26:48.019Z,98893.28
2022-12-11T15:29:40.230Z,98900.44
2022-12-11T15:32:19.605Z,98908.34
2022-12-11T15:34:56.113Z,98916.09
2022-12-11T15:37:26.457Z,98906.13
2022-12-11T15:39:57.473Z,98905.91
2022-12-11T15:42:41.671Z,98901.44
2022-12-11T15:45:21.188Z,98925.34
2022-12-11T15:47:50.461Z,98907.84
2022-12-11T15:50:28.664Z,98904.34
2022-12-11T15:52:57.620Z,98905.81
2022-12-11T15:55:27.594Z,98895.75
2022-12-11T15:58:06.032Z,98897.53
2022-12-11T16:00:34.089Z,98902.44
2022-12-11T16:03:02.068Z,98913.06
2022-12-11T16:05:30.332Z,98914.16
2022-12-11T16:08:00.649Z,98910.72
2022-12-11T16:10:28.957Z,98909.59
2022-12-11T16:12:59.602Z,98909.78
2022-12-11T16:15:29.564Z,98918.34
2022-12-11T16:18:06.769Z,98922.84
2022-12-11T16:20:36.961Z,98916.97
2022-12-11T16:23:05.440Z,98917.94
2022-12-11T16:25:34.470Z,98907.16
2022-12-11T16:28:02.542Z,98906.06
2022-12-11T16:30:30.447Z,98907.50
2022-12-11T16:32:58.091Z,98895.44
2022-12-11T16:35:26.106Z,98895.91
2022-12-11T16:37:55.295Z,98899.25
2022-12-11T16:40:24.222Z,98901.47
2022-12-11T16:42:52.834Z,98904.56
2022-12-11T16:45:25.300Z,98901.06
2022-12-11T16:47:53.422Z,98904.59
2022-12-11T16:50:21.503Z,98898.19
2022-12-11T16:52:49.269Z,98893.56
2022-12-11T16:55:21.183Z,98893.91
2022-12-11T16:57:49.202Z,98900.09
2022-12-11T17:00:17.755Z,98892.13
2022-12-11T17:02:45.474Z,98888.22
2022-12-11T17:05:13.946Z,98892.53
2022-12-11T17:07:42.107Z,98896.19
2022-12-11T17:10:10.991Z,98895.75
2022-12-11T17:12:39.092Z,98906.06
2022-12-11T17:15:07.841Z,98909.25
2022-12-11T17:17:35.597Z,98918.13
2022-12-11T17:20:03.914Z,98912.63
2022-12-11T17:22:31.542Z,98917.91
2022-12-11T17:24:59.531Z,98924.88
2022-12-11T17:27:27.201Z,98921.78
2022-12-11T17:29:55.144Z,98919.13
2022-12-11T17:32:23.011Z,98915.72
2022-12-11T17:34:54.094Z,98917.81
2022-12-11T17:37:21.896Z,98916.38
2022-12-11T17:39:49.908Z,98898.22
2022-12-11T17:42:17.565Z,98900.22
2022-12-11T17:44:45.716Z,98907.63
2022-12-11T17:47:13.384Z,98913.47
2022-12-11T17:49:41.666Z,98920.56
2022-12-11T17:52:09.379Z,98912.34
2022-12-11T17:54:39.324Z,98907.50
2022-12-11T17:57:07.344Z,98909.03
2022-12-11T17:59:35.328Z,98912.94
2022-12-11T18:02:03.033Z,98913.03
2022-12-11T18:04:30.963Z,98910.25
2022-12-11T18:06:58.711Z,98913.56
2022-12-11T18:09:26.629Z,98908.59
2022-12-11T18:11:54.188Z,98906.81
2022-12-11T18:14:22.113Z,98902.16
2022-12-11T18:16:49.783Z,98914.88
2022-12-11T18:19:17.660Z,98916.09
2022-12-11T18:21:46.019Z,98919.44
2022-12-11T18:24:14.240Z,98916.78
2022-12-11T18:26:43.063Z,98909.91
2022-12-11T18:29:11.664Z,98916.56
2022-12-11T18:31:42.705Z,98917.44
2022-12-11T18:34:11.779Z,98913.81
2022-12-11T18:36:40.847Z,98910.19
2022-12-11T18:39:08.684Z,98920.09
2022-12-11T18:41:36.459Z,98918.78
2022-12-11T18:44:09.478Z,98925.41
2022-12-11T18:46:39.920Z,98918.56
2022-12-11T18:49:08.771Z,98926.88
2022-12-11T18:51:37.322Z,98927.72
2022-12-11T18:54:05.325Z,98930.91
2022-12-11T18:56:32.911Z,98925.59
2022-12-11T18:59:01.627Z,98926.63
2022-12-11T19:01:33.119Z,98939.13
2022-12-11T19:04:06.655Z,98937.03
2022-12-11T19:06:39.259Z,98944.41
2022-12-11T19:09:09.039Z,98943.34
2022-12-11T19:11:40.947Z,98964.28
2022-12-11T19:14:10.268Z,98952.91
2022-12-11T19:16:43.081Z,98940.59
2022-12-11T19:19:17.989Z,98948.25
2022-12-11T19:21:47.249Z,98947.16
2022-12-11T19:24:23.171Z,98942.59
2022-12-11T19:26:51.484Z,98947.78
2022-12-11T19:29:34.523Z,98954.28
2022-12-11T19:32:03.593Z,98955.72
2022-12-11T19:34:32.296Z,98955.78
2022-12-11T19:37:00.056Z,98972.06
2022-12-11T19:39:28.139Z,98969.19
2022-12-11T19:41:55.593Z,98966.47
2022-12-11T19:44:23.547Z,98967.47
2022-12-11T19:47:19.132Z,98960.19
2022-12-11T19:49:52.204Z,98975.94
2022-12-11T19:52:19.904Z,98978.69
2022-12-11T19:54:47.803Z,98970.81
2022-12-11T19:57:16.114Z,98967.69
2022-12-11T19:59:44.022Z,98966.81
2022-12-11T20:02:12.395Z,98960.41
2022-12-11T20:04:40.290Z,98952.84
2022-12-11T20:07:13.191Z,98948.19
2022-12-11T20:09:46.272Z,98948.31
2022-12-11T20:12:22.552Z,98961.50
2022-12-11T20:14:56.782Z,98964.38
2022-12-11T20:17:34.267Z,98960.63
2022-12-11T20:20:08.694Z,98951.28
2022-12-11T20:22:42.945Z,98955.50
2022-12-11T20:25:18.361Z,98968.09
2022-12-11T20:27:59.901Z,98978.59
2022-12-11T20:30:32.801Z,98983.25
2022-12-11T20:33:05.806Z,98984.00
2022-12-11T20:35:43.841Z,98991.69
2022-12-11T20:38:17.403Z,98991.56
2022-12-11T20:40:51.662Z,98989.56
2022-12-11T20:44:07.303Z,98987.09
2022-12-11T20:46:42.301Z,98991.56
2022-12-11T20:49:15.707Z,98990.25
2022-12-11T20:51:45.980Z,98995.56
2022-12-11T20:54:20.790Z,99003.22
2022-12-11T20:56:55.569Z,99008.22
2022-12-11T20:59:28.654Z,99017.94
2022-12-11T21:02:02.376Z,99006.56
2022-12-11T21:04:34.558Z,99003.53
2022-12-11T21:07:11.008Z,99008.22
2022-12-11T21:09:46.208Z,99008.13
2022-12-11T21:12:29.823Z,99017.06
2022-12-11T21:15:07.970Z,99021.56
2022-12-11T21:17:42.715Z,99016.19
2022-12-11T21:20:17.421Z,99013.84
2022-12-11T21:22:50.356Z,99015.66
2022-12-11T21:25:27.792Z,99025.56
2022-12-11T21:28:00.840Z,99037.81
2022-12-11T21:30:35.131Z,99037.53
2022-12-11T21:33:10.699Z,99047.91
2022-12-11T21:35:45.583Z,99055.69
2022-12-11T21:38:17.499Z,99048.84
2022-12-11T21:40:45.166Z,99058.56
2022-12-11T21:43:13.078Z,99062.56
2022-12-11T21:48:30.310Z,99070.31
2022-12-11T21:51:14.632Z,99065.47
2022-12-11T21:53:43.074Z,99068.75
2022-12-11T21:56:15.178Z,99079.69
2022-12-11T21:58:45.280Z,99078.16
2022-12-11T22:01:26.546Z,99076.91
2022-12-11T22:03:54.839Z,99089.53
2022-12-11T22:06:22.630Z,99075.38
2022-12-11T22:08:51.376Z,99076.91
2022-12-11T22:11:28.206Z,99078.47
2022-12-11T22:13:56.795Z,99084.75
2022-12-11T22:16:24.952Z,99081.97
2022-12-11T22:18:54.743Z,99065.59
2022-12-11T22:21:22.506Z,99075.75
2022-12-11T22:23:50.656Z,99105.91
2022-12-11T22:26:26.674Z,99101.38
2022-12-11T22:28:55.799Z,99090.69
2022-12-11T22:31:26.386Z,99092.91
2022-12-11T22:33:55.502Z,99076.97
2022-12-11T22:36:25.392Z,99084.31
2022-12-11T22:38:54.132Z,99093.47
2022-12-11T22:41:31.062Z,99088.63
2022-12-11T22:44:00.015Z,99079.25
2022-12-11T22:46:30.916Z,99064.88
2022-12-11T22:48:59.311Z,99062.53
2022-12-11T22:51:26.985Z,99062.53
2022-12-11T22:53:55.088Z,99069.97
2022-12-11T22:56:22.729Z,99091.69
2022-12-11T22:58:51.245Z,99082.63
2022-12-11T23:01:23.116Z,99094.72
2022-12-11T23:03:51.367Z,99098.38
2022-12-11T23:06:22.897Z,99092.81
2022-12-11T23:08:52.243Z,99097.66
2022-12-11T23:11:27.652Z,99091.69
2022-12-11T23:13:56.329Z,99083.63
2022-12-11T23:16:25.887Z,99075.78
2022-12-11T23:18:56.144Z,99068.75
2022-12-11T23:21:26.119Z,99074.97
2022-12-11T23:23:55.212Z,99077.75
2022-12-11T23:26:23.767Z,99082.09
2022-12-11T23:28:51.749Z,99076.16
2022-12-11T23:31:19.606Z,99071.75
2022-12-11T23:33:47.584Z,99065.00
2022-12-11T23:36:15.281Z,99064.34
2022-12-11T23:38:43.610Z,99059.38
2022-12-11T23:41:14.313Z,99070.31
2022-12-11T23:43:43.193Z,99082.34
2022-12-11T23:46:19.926Z,99070.78
2022-12-11T23:48:48.819Z,99068.25
2022-12-11T23:51:19.175Z,99065.59
2022-12-11T23:53:47.634Z,99061.81
2022-12-11T23:56:20.425Z,99066.25
2022-12-11T23:58:48.617Z,99067.00
